createdAt,value
2023-03-22T00:01:20.876Z,2.95
2023-03-22T00:03:51.231Z,2.80
2023-03-22T00:06:20.545Z,2.50
2023-03-22T00:08:53.481Z,2.92
2023-03-22T00:11:24.431Z,3.30
2023-03-22T00:13:54.966Z,3.17
2023-03-22T00:16:23.933Z,2.42
2023-03-22T00:18:52.560Z,3.30
2023-03-22T00:21:22.376Z,2.92
2023-03-22T00:23:52.263Z,3.15
2023-03-22T00:26:20.586Z,2.60
2023-03-22T00:28:48.931Z,3.03
2023-03-22T00:31:17.412Z,2.85
2023-03-22T00:33:45.741Z,3.22
2023-03-22T00:36:18.078Z,2.67
2023-03-22T00:38:46.551Z,2.60
2023-03-22T00:41:18.066Z,2.60
2023-03-22T00:43:47.161Z,2.45
2023-03-22T00:46:18.590Z,2.50
2023-03-22T00:48:47.120Z,2.50
2023-03-22T00:51:16.444Z,2.65
2023-03-22T00:53:44.791Z,2.35
2023-03-22T00:56:23.516Z,2.65
2023-03-22T00:58:54.732Z,2.72
2023-03-22T01:01:22.792Z,2.72
2023-03-22T01:03:51.000Z,3.20
2023-03-22T01:06:19.587Z,2.90
2023-03-22T01:08:50.747Z,3.35
2023-03-22T01:11:19.081Z,2.83
2023-03-22T01:13:47.903Z,2.88
2023-03-22T01:16:18.453Z,2.65
2023-03-22T01:18:46.496Z,2.92
2023-03-22T01:21:14.630Z,2.63
2023-03-22T01:23:42.469Z,2.55
2023-03-22T01:26:10.496Z,3.00
2023-03-22T01:28:40.473Z,2.42
2023-03-22T01:31:08.772Z,2.75
2023-03-22T01:33:38.018Z,2.38
2023-03-22T01:36:06.709Z,2.92
2023-03-22T01:38:34.546Z,2.75
2023-03-22T01:41:02.501Z,2.85
2023-03-22T01:43:30.463Z,3.08
2023-03-22T01:45:58.699Z,3.17
2023-03-22T01:48:29.006Z,3.05
2023-03-22T01:51:11.220Z,3.80
2023-03-22T01:53:42.952Z,3.38
2023-03-22T01:56:11.615Z,3.00
2023-03-22T01:58:40.591Z,3.13
2023-03-22T02:01:10.996Z,3.28
2023-03-22T02:03:46.050Z,3.47
2023-03-22T02:06:15.461Z,3.08
2023-03-22T02:08:43.316Z,3.50
2023-03-22T02:11:15.916Z,3.25
2023-03-22T02:13:59.662Z,4.30
2023-03-22T02:16:40.023Z,3.58
2023-03-22T02:19:30.517Z,3.30
2023-03-22T02:22:40.574Z,4.07
2023-03-22T02:25:34.384Z,3.97
2023-03-22T02:28:38.839Z,3.50
2023-03-22T02:31:42.277Z,3.33
2023-03-22T02:34:43.396Z,3.42
2023-03-22T02:37:57.412Z,3.40
2023-03-22T02:40:33.343Z,3.75
2023-03-22T02:43:10.809Z,4.10
2023-03-22T02:45:46.040Z,3.60
2023-03-22T02:48:18.792Z,3.65
2023-03-22T02:50:53.573Z,3.85
2023-03-22T02:53:25.832Z,4.18
2023-03-22T02:55:59.516Z,3.70
2023-03-22T02:58:30.380Z,3.80
2023-03-22T03:01:02.715Z,3.90
2023-03-22T03:03:32.293Z,3.33
2023-03-22T03:06:05.964Z,3.65
2023-03-22T03:08:34.397Z,3.67
2023-03-22T03:11:03.777Z,3.50
2023-03-22T03:13:31.831Z,3.40
2023-03-22T03:16:01.658Z,3.28
2023-03-22T03:18:40.681Z,4.00
2023-03-22T03:21:21.841Z,3.72
2023-03-22T03:23:56.002Z,3.45
2023-03-22T03:26:35.026Z,3.72
2023-03-22T03:29:07.093Z,4.07
2023-03-22T03:31:41.776Z,3.22
2023-03-22T03:34:17.294Z,3.63
2023-03-22T03:36:51.157Z,3.17
2023-03-22T03:39:21.934Z,3.30
2023-03-22T03:41:54.038Z,3.20
2023-03-22T03:44:22.710Z,3.70
2023-03-22T03:46:53.754Z,3.33
2023-03-22T03:49:24.071Z,3.53
2023-03-22T03:51:54.099Z,3.38
2023-03-22T03:54:22.598Z,3.28
2023-03-22T03:56:51.882Z,3.28
2023-03-22T03:59:20.910Z,3.03
2023-03-22T04:01:51.686Z,3.47
2023-03-22T04:04:26.180Z,3.50
2023-03-22T04:06:56.682Z,3.58
2023-03-22T04:09:26.780Z,4.00
2023-03-22T04:11:56.800Z,3.50
2023-03-22T04:14:25.628Z,3.13
2023-03-22T04:16:54.056Z,3.67
2023-03-22T04:19:22.254Z,3.75
2023-03-22T04:21:53.066Z,3.72
2023-03-22T04:24:21.579Z,4.32
2023-03-22T04:26:49.428Z,3.28
2023-03-22T04:29:18.561Z,3.80
2023-03-22T04:31:46.440Z,3.78
2023-03-22T04:34:14.397Z,4.15
2023-03-22T04:36:42.400Z,4.18
2023-03-22T04:39:11.768Z,3.50
2023-03-22T04:41:39.689Z,3.53
2023-03-22T04:44:08.992Z,3.33
2023-03-22T04:46:38.639Z,3.88
2023-03-22T04:49:07.470Z,3.80
2023-03-22T04:51:35.352Z,3.70
2023-03-22T04:54:03.210Z,3.75
2023-03-22T04:56:31.092Z,3.67
2023-03-22T04:58:59.028Z,3.60
2023-03-22T05:01:26.881Z,3.85
2023-03-22T05:03:56.179Z,4.20
2023-03-22T05:06:24.250Z,4.50
2023-03-22T05:08:52.117Z,3.47
2023-03-22T05:11:20.410Z,3.70
2023-03-22T05:13:48.272Z,3.63
2023-03-22T05:16:16.259Z,3.45
2023-03-22T05:18:45.375Z,3.75
2023-03-22T05:21:15.929Z,3.63
2023-03-22T05:23:44.122Z,3.38
2023-03-22T05:26:15.967Z,3.55
2023-03-22T05:28:44.807Z,3.58
2023-03-22T05:31:14.891Z,3.17
2023-03-22T05:33:42.798Z,3.40
2023-03-22T05:36:12.160Z,3.72
2023-03-22T05:38:41.338Z,4.10
2023-03-22T05:41:10.578Z,3.42
2023-03-22T05:43:38.746Z,3.25
2023-03-22T05:46:07.669Z,3.95
2023-03-22T05:48:35.926Z,3.25
2023-03-22T05:51:06.330Z,3.20
2023-03-22T05:53:34.152Z,5.15
2023-03-22T05:56:03.565Z,3.50
2023-03-22T05:58:33.786Z,3.55
2023-03-22T06:01:07.015Z,3.38
2023-03-22T06:03:35.057Z,3.22
2023-03-22T06:06:06.678Z,3.65
2023-03-22T06:08:34.761Z,4.50
2023-03-22T06:11:04.504Z,4.10
2023-03-22T06:13:32.562Z,3.42
2023-03-22T06:16:00.983Z,3.58
2023-03-22T06:18:28.921Z,4.25
2023-03-22T06:20:56.874Z,3.70
2023-03-22T06:23:24.767Z,3.40
2023-03-22T06:25:52.675Z,3.03
2023-03-22T06:28:22.056Z,4.00
2023-03-22T06:30:50.058Z,3.35
2023-03-22T06:33:17.977Z,3.58
2023-03-22T06:35:46.003Z,3.35
2023-03-22T06:38:14.206Z,3.53
2023-03-22T06:40:42.290Z,3.25
2023-03-22T06:43:10.292Z,2.88
2023-03-22T06:45:39.493Z,3.42
2023-03-22T06:48:08.067Z,3.85
2023-03-22T06:50:38.381Z,3.80
2023-03-22T06:53:06.779Z,3.20
2023-03-22T06:55:34.966Z,3.53
2023-03-22T06:58:03.347Z,3.20
2023-03-22T07:00:31.967Z,2.95
2023-03-22T07:03:01.765Z,2.92
2023-03-22T07:05:29.673Z,3.08
2023-03-22T07:07:57.643Z,3.47
2023-03-22T07:10:25.508Z,2.72
2023-03-22T07:12:53.368Z,2.88
2023-03-22T07:15:24.261Z,2.75
2023-03-22T07:17:52.424Z,2.60
2023-03-22T07:20:21.821Z,3.05
2023-03-22T07:22:51.085Z,2.60
2023-03-22T07:25:19.033Z,2.92
2023-03-22T07:27:47.181Z,2.38
2023-03-22T07:30:15.225Z,2.42
2023-03-22T07:32:43.108Z,2.33
2023-03-22T07:35:11.193Z,2.30
2023-03-22T07:37:40.504Z,2.35
2023-03-22T07:40:09.701Z,2.28
2023-03-22T07:42:37.845Z,2.13
2023-03-22T07:45:06.921Z,1.85
2023-03-22T07:47:41.054Z,1.92
2023-03-22T07:50:11.712Z,2.05
2023-03-22T07:52:40.991Z,1.88
2023-03-22T07:55:10.958Z,2.45
2023-03-22T07:57:39.225Z,1.77
2023-03-22T08:00:10.318Z,1.85
2023-03-22T08:02:38.657Z,1.75
2023-03-22T08:05:08.205Z,1.92
2023-03-22T08:07:36.236Z,2.00
2023-03-22T08:10:06.638Z,1.70
2023-03-22T08:12:34.556Z,1.52
2023-03-22T08:15:03.034Z,1.55
2023-03-22T08:17:31.076Z,1.48
2023-03-22T08:19:58.898Z,2.08
2023-03-22T08:22:29.817Z,1.25
2023-03-22T08:24:57.631Z,1.73
2023-03-22T08:27:27.343Z,1.35
2023-03-22T08:29:55.373Z,1.52
2023-03-22T08:32:23.285Z,1.45
2023-03-22T08:34:51.203Z,1.13
2023-03-22T08:37:20.230Z,1.30
2023-03-22T08:39:48.649Z,1.60
2023-03-22T08:42:16.570Z,1.30
2023-03-22T08:44:46.121Z,1.40
2023-03-22T08:47:14.686Z,1.20
2023-03-22T08:49:43.203Z,1.23
2023-03-22T08:52:11.525Z,1.45
2023-03-22T08:54:39.636Z,1.50
2023-03-22T08:57:09.324Z,1.30
2023-03-22T08:59:37.248Z,1.50
2023-03-22T09:02:06.901Z,1.70
2023-03-22T09:04:34.846Z,1.40
2023-03-22T09:07:02.740Z,1.38
2023-03-22T09:09:30.852Z,1.98
2023-03-22T09:11:58.793Z,1.42
2023-03-22T09:14:26.630Z,1.38
2023-03-22T09:16:54.515Z,1.50
2023-03-22T09:19:23.674Z,1.20
2023-03-22T09:21:51.855Z,1.10
2023-03-22T09:24:19.948Z,1.35
2023-03-22T09:26:48.226Z,1.20
2023-03-22T09:29:16.328Z,1.23
2023-03-22T09:31:45.162Z,1.20
2023-03-22T09:34:13.117Z,1.48
2023-03-22T09:36:42.440Z,1.23
2023-03-22T09:39:10.311Z,1.10
2023-03-22T09:41:42.022Z,1.00
2023-03-22T09:44:15.794Z,1.23
2023-03-22T09:46:47.029Z,1.13
2023-03-22T09:49:19.412Z,1.50
2023-03-22T09:51:50.633Z,1.02
2023-03-22T09:54:21.692Z,1.77
2023-03-22T09:56:55.158Z,1.00
2023-03-22T09:59:31.309Z,1.20
2023-03-22T10:02:01.807Z,0.90
2023-03-22T10:04:53.142Z,0.93
2023-03-22T10:07:28.504Z,0.90
2023-03-22T10:10:07.366Z,1.23
2023-03-22T10:12:41.318Z,1.20
2023-03-22T10:15:14.892Z,1.10
2023-03-22T10:17:46.965Z,0.75
2023-03-22T10:20:26.421Z,0.80
2023-03-22T10:22:56.880Z,0.95
2023-03-22T10:25:32.761Z,0.90
2023-03-22T10:28:00.720Z,1.50
2023-03-22T10:30:35.224Z,0.80
2023-03-22T10:33:05.078Z,0.77
2023-03-22T10:35:33.487Z,0.93
2023-03-22T10:38:07.269Z,0.80
2023-03-22T10:40:37.367Z,0.73
2023-03-22T10:43:11.124Z,0.75
2023-03-22T10:45:39.815Z,0.70
2023-03-22T10:48:14.394Z,0.63
2023-03-22T10:50:45.497Z,0.60
2023-03-22T10:53:31.375Z,0.70
2023-03-22T10:55:59.569Z,0.90
2023-03-22T10:58:30.635Z,0.82
2023-03-22T11:01:00.980Z,0.85
2023-03-22T11:03:31.919Z,0.60
2023-03-22T11:06:01.828Z,0.80
2023-03-22T11:08:39.176Z,0.70
2023-03-22T11:11:07.808Z,0.90
2023-03-22T11:13:36.800Z,0.80
2023-03-22T11:16:05.848Z,0.68
2023-03-22T11:18:35.809Z,0.88
2023-03-22T11:21:08.277Z,0.40
2023-03-22T11:23:39.703Z,0.75
2023-03-22T11:26:10.342Z,0.55
2023-03-22T11:28:43.945Z,0.70
2023-03-22T11:31:13.234Z,0.65
2023-03-22T11:33:56.206Z,0.68
2023-03-22T11:36:24.453Z,0.50
2023-03-22T11:39:00.429Z,0.80
2023-03-22T11:41:30.743Z,0.70
2023-03-22T11:44:02.803Z,0.85
2023-03-22T11:46:32.036Z,0.88
2023-03-22T11:49:03.144Z,0.90
2023-03-22T11:51:35.001Z,0.73
2023-03-22T11:54:09.008Z,0.60
2023-03-22T11:56:42.148Z,0.80
2023-03-22T11:59:14.570Z,0.80
2023-03-22T12:01:47.636Z,0.70
2023-03-22T12:04:21.000Z,0.65
2023-03-22T12:06:50.034Z,0.93
2023-03-22T12:09:26.979Z,0.75
2023-03-22T12:11:57.772Z,0.85
2023-03-22T12:14:29.155Z,0.45
2023-03-22T12:17:01.906Z,0.60
2023-03-22T12:19:51.606Z,0.80
2023-03-22T12:22:22.587Z,0.63
2023-03-22T12:24:51.862Z,0.77
2023-03-22T12:27:24.491Z,0.77
2023-03-22T12:29:59.518Z,0.82
2023-03-22T12:32:30.431Z,0.70
2023-03-22T12:35:16.094Z,0.65
2023-03-22T12:37:48.955Z,0.80
2023-03-22T12:40:25.993Z,0.73
2023-03-22T12:43:03.628Z,0.77
2023-03-22T12:45:34.586Z,0.47
2023-03-22T12:48:07.987Z,0.70
2023-03-22T12:50:40.277Z,0.70
2023-03-22T12:53:11.970Z,0.73
2023-03-22T12:55:43.172Z,0.60
2023-03-22T12:58:16.043Z,0.47
2023-03-22T13:00:47.583Z,0.77
2023-03-22T13:03:28.825Z,0.55
2023-03-22T13:06:06.870Z,0.98
2023-03-22T13:11:25.999Z,0.70
2023-03-22T13:13:53.939Z,0.57
2023-03-22T13:16:40.836Z,0.60
2023-03-22T13:19:34.360Z,0.40
2023-03-22T13:22:27.011Z,0.80
2023-03-22T13:25:08.448Z,0.60
2023-03-22T13:27:41.853Z,0.60
2023-03-22T13:30:22.819Z,0.55
2023-03-22T13:32:56.287Z,0.70
2023-03-22T13:35:28.182Z,0.60
2023-03-22T13:38:03.763Z,0.60
2023-03-22T13:40:37.741Z,0.60
2023-03-22T13:43:24.161Z,0.50
2023-03-22T13:46:29.064Z,0.80
2023-03-22T13:49:18.234Z,0.75
2023-03-22T13:51:46.630Z,0.68
2023-03-22T13:54:23.867Z,0.70
2023-03-22T13:56:56.427Z,0.77
2023-03-22T13:59:31.291Z,0.75
2023-03-22T14:02:05.510Z,0.70
2023-03-22T14:04:40.691Z,0.55
2023-03-22T14:07:19.420Z,0.52
2023-03-22T14:09:52.288Z,0.60
2023-03-22T14:12:23.643Z,0.65
2023-03-22T14:14:56.618Z,0.70
2023-03-22T14:17:35.020Z,0.80
2023-03-22T14:20:06.042Z,0.60
